Time;durP1;ratioP1;P1;durP2;ratioP2;P2;SDS_P1;SDS_P2;PMS_P1;PMS_P2;Temp;Humidity;BMP_temperature;BMP_pressure;BME280_temperature;BME280_humidity;BME280_pressure;Samples;Min_cycle;Max_cycle;Signal;HPM_P1;HPM_P2
2022/03/16 00:00:19;;;;;;;46.00;23.60;;;5.90;99.90;;;;;;5048668;28;20492;-80
2022/03/16 00:02:46;;;;;;;48.53;25.40;;;5.80;99.90;;;;;;5063504;28;20135;-79
2022/03/16 00:05:12;;;;;;;55.75;24.27;;;5.80;99.90;;;;;;5065255;28;20484;-79
2022/03/16 00:07:38;;;;;;;41.30;21.88;;;5.70;99.90;;;;;;5064255;28;20040;-80
2022/03/16 00:10:07;;;;;;;50.28;23.80;;;5.70;99.90;;;;;;5064331;28;20171;-79
2022/03/16 00:12:33;;;;;;;56.28;25.45;;;5.70;99.90;;;;;;5066845;28;20120;-79
2022/03/16 00:14:59;;;;;;;49.28;25.10;;;5.60;99.90;;;;;;5064867;28;20064;-79
2022/03/16 00:17:25;;;;;;;49.17;24.70;;;5.60;99.90;;;;;;5066815;28;20119;-79
2022/03/16 00:19:51;;;;;;;46.60;23.40;;;5.60;99.90;;;;;;5064793;28;20060;-79
2022/03/16 00:22:17;;;;;;;49.85;22.05;;;5.60;99.90;;;;;;5065020;28;20044;-79
2022/03/16 00:24:43;;;;;;;46.53;24.50;;;5.50;99.90;;;;;;5065885;28;20047;-80
2022/03/16 00:27:08;;;;;;;53.92;22.90;;;5.50;99.90;;;;;;5064063;28;20048;-80
2022/03/16 00:29:34;;;;;;;45.05;24.38;;;5.50;99.90;;;;;;5066500;28;20102;-80
2022/03/16 00:32:00;;;;;;;53.08;24.52;;;5.40;99.90;;;;;;5064938;28;20116;-79
2022/03/16 00:34:26;;;;;;;46.30;23.35;;;5.40;99.90;;;;;;5066517;28;20127;-80
2022/03/16 00:36:52;;;;;;;43.42;24.13;;;5.30;99.90;;;;;;5063237;28;20044;-80
2022/03/16 00:39:18;;;;;;;48.78;23.27;;;5.30;99.90;;;;;;5048104;28;20044;-79
2022/03/16 00:41:43;;;;;;;45.30;23.52;;;5.20;99.90;;;;;;5064062;28;20048;-80
2022/03/16 00:44:09;;;;;;;42.97;22.98;;;6.30;99.90;;;;;;5064426;28;20133;-79
2022/03/16 00:46:36;;;;;;;41.78;23.00;;;5.20;99.90;;;;;;5064805;28;20049;-80
2022/03/16 00:49:03;;;;;;;44.47;22.50;;;5.10;99.90;;;;;;5063593;28;20385;-81
2022/03/16 00:51:29;;;;;;;53.42;22.77;;;5.10;99.90;;;;;;5048279;28;20471;-80
2022/03/16 00:53:55;;;;;;;41.47;21.77;;;5.00;99.90;;;;;;5063160;28;20044;-81
2022/03/16 00:56:21;;;;;;;52.45;23.63;;;4.90;99.90;;;;;;5065110;28;20041;-80
2022/03/16 00:58:47;;;;;;;47.65;23.85;;;4.90;99.90;;;;;;5046879;28;20102;-80
2022/03/16 01:01:13;;;;;;;54.70;24.42;;;4.90;99.90;;;;;;5063991;28;20082;-80
2022/03/16 01:03:41;;;;;;;54.15;25.35;;;4.80;99.90;;;;;;5065196;28;20086;-80
2022/03/16 01:06:18;;;;;;;52.72;24.48;;;4.80;99.90;;;;;;5063028;28;20037;-80
2022/03/16 01:08:45;;;;;;;53.10;24.42;;;4.80;99.90;;;;;;5064926;28;20060;-80
2022/03/16 01:11:14;;;;;;;51.33;24.63;;;4.70;99.90;;;;;;5062816;28;20049;-80
2022/03/16 01:13:43;;;;;;;47.72;23.98;;;4.70;99.90;;;;;;5064381;28;20052;-80
2022/03/16 01:16:09;;;;;;;46.45;24.48;;;4.80;99.90;;;;;;5064061;28;20071;-81
2022/03/16 01:18:35;;;;;;;49.95;25.08;;;4.70;99.90;;;;;;5030119;28;20084;-80
2022/03/16 01:21:04;;;;;;;53.78;24.73;;;4.70;99.90;;;;;;5031567;28;20075;-80
2022/03/16 01:23:30;;;;;;;41.97;24.13;;;5.40;99.90;;;;;;5048143;28;20051;-80
2022/03/16 01:25:55;;;;;;;51.45;24.58;;;4.70;99.90;;;;;;5069848;28;20115;-81
2022/03/16 01:28:21;;;;;;;48.17;22.48;;;4.70;99.90;;;;;;5050102;28;20140;-80
2022/03/16 01:30:47;;;;;;;49.15;23.63;;;4.60;99.90;;;;;;5068064;28;20087;-80
2022/03/16 01:33:12;;;;;;;42.58;22.85;;;4.60;99.90;;;;;;5067404;28;20082;-81
2022/03/16 01:35:38;;;;;;;45.15;24.15;;;4.60;99.90;;;;;;5066976;28;20071;-81
2022/03/16 01:38:04;;;;;;;46.25;22.95;;;5.60;99.90;;;;;;5034810;28;20094;-81
2022/03/16 01:40:29;;;;;;;44.38;22.15;;;4.50;99.90;;;;;;5049657;28;20496;-80
2022/03/16 01:42:55;;;;;;;47.20;23.38;;;4.50;99.90;;;;;;5051608;28;20063;-80
2022/03/16 01:45:21;;;;;;;44.75;24.48;;;4.50;99.90;;;;;;5067660;28;20060;-80
2022/03/16 01:47:46;;;;;;;42.78;22.95;;;4.50;99.90;;;;;;5067709;28;20348;-80
2022/03/16 01:50:12;;;;;;;43.08;22.27;;;4.40;99.90;;;;;;5066902;28;20055;-80
2022/03/16 01:52:39;;;;;;;47.50;24.33;;;5.40;99.90;;;;;;5066591;28;20044;-80
2022/03/16 01:55:06;;;;;;;44.60;22.42;;;4.40;99.90;;;;;;5067767;28;20427;-79
2022/03/16 01:57:35;;;;;;;49.33;22.63;;;4.30;99.90;;;;;;5066002;28;20048;-80
2022/03/16 02:00:06;;;;;;;46.45;24.75;;;4.30;99.90;;;;;;5067506;28;20056;-80
2022/03/16 02:02:32;;;;;;;48.95;24.35;;;4.40;99.90;;;;;;5050037;28;20102;-79
2022/03/16 02:04:58;;;;;;;50.63;25.52;;;4.40;99.90;;;;;;5067553;28;20127;-80
2022/03/16 02:07:23;;;;;;;56.20;26.17;;;4.50;99.90;;;;;;5050317;28;20080;-80
2022/03/16 02:09:50;;;;;;;52.65;26.20;;;4.60;99.90;;;;;;5066215;28;20051;-79
2022/03/16 02:12:16;;;;;;;55.70;26.10;;;5.30;99.90;;;;;;5050685;28;20048;-80
2022/03/16 02:14:42;;;;;;;58.10;25.85;;;4.70;99.90;;;;;;5065954;28;20036;-80
2022/03/16 02:17:07;;;;;;;59.33;26.58;;;4.70;99.90;;;;;;5067427;28;20463;-80
2022/03/16 02:19:34;;;;;;;64.47;26.98;;;4.70;99.90;;;;;;5048467;28;20059;-80
2022/03/16 02:22:02;;;;;;;50.47;24.60;;;4.70;99.90;;;;;;5050596;28;20098;-80
2022/03/16 02:24:31;;;;;;;55.05;25.92;;;4.70;99.90;;;;;;5033367;28;20048;-80
2022/03/16 02:26:57;;;;;;;55.72;25.65;;;4.70;99.90;;;;;;5049864;28;20045;-80
2022/03/16 02:29:23;;;;;;;52.83;25.70;;;4.80;99.90;;;;;;5067436;28;20071;-79
2022/03/16 02:31:49;;;;;;;61.85;25.25;;;4.80;99.90;;;;;;5066718;28;20090;-79
2022/03/16 02:34:15;;;;;;;60.05;28.17;;;4.80;99.90;;;;;;5066312;28;20481;-79
2022/03/16 02:36:40;;;;;;;60.03;26.77;;;4.80;99.90;;;;;;5065541;28;20055;-80
2022/03/16 02:39:06;;;;;;;53.83;24.88;;;4.90;99.90;;;;;;5066642;28;20048;-80
2022/03/16 02:41:32;;;;;;;51.97;26.92;;;4.90;99.90;;;;;;5066161;28;20082;-80
2022/03/16 02:43:58;;;;;;;52.80;25.90;;;4.90;99.90;;;;;;5067396;28;20048;-79
2022/03/16 02:46:24;;;;;;;57.55;26.80;;;4.90;99.90;;;;;;5066734;28;20056;-79
2022/03/16 02:48:49;;;;;;;52.92;24.98;;;4.90;99.90;;;;;;5065464;28;20049;-80
2022/03/16 02:51:15;;;;;;;55.80;25.02;;;6.30;99.90;;;;;;5050048;28;20059;-80
2022/03/16 02:53:41;;;;;;;56.90;26.13;;;4.80;99.90;;;;;;5047914;28;20446;-80
2022/03/16 02:56:07;;;;;;;49.95;23.70;;;4.80;99.90;;;;;;5067830;28;20055;-80
2022/03/16 02:58:33;;;;;;;48.45;24.65;;;4.80;99.90;;;;;;5032090;28;20051;-79
2022/03/16 03:00:59;;;;;;;50.42;24.88;;;4.70;99.90;;;;;;5032883;28;20040;-80
2022/03/16 03:03:25;;;;;;;49.95;25.42;;;4.70;99.90;;;;;;5049883;28;20458;-80
2022/03/16 03:05:52;;;;;;;51.38;25.08;;;5.60;99.90;;;;;;5048523;28;20492;-80
2022/03/16 03:08:18;;;;;;;45.33;23.83;;;4.30;99.90;;;;;;5066459;28;20048;-80
2022/03/16 03:10:43;;;;;;;45.70;23.77;;;4.60;99.90;;;;;;5065729;28;20540;-80
2022/03/16 03:13:09;;;;;;;42.03;23.08;;;4.50;99.90;;;;;;5066531;28;20049;-80
2022/03/16 03:15:35;;;;;;;47.10;24.02;;;4.50;99.90;;;;;;5066763;28;20064;-80
2022/03/16 03:18:00;;;;;;;41.15;22.48;;;4.50;99.90;;;;;;5066753;28;20094;-80
2022/03/16 03:20:26;;;;;;;44.33;24.55;;;4.40;99.90;;;;;;5065935;28;20135;-80
2022/03/16 03:22:52;;;;;;;48.47;23.50;;;4.40;99.90;;;;;;5048281;28;20044;-80
2022/03/16 03:25:17;;;;;;;51.63;23.83;;;4.70;99.90;;;;;;5066265;28;20033;-80
2022/03/16 03:27:43;;;;;;;47.53;23.05;;;4.40;99.90;;;;;;5065622;28;20072;-80
2022/03/16 03:30:10;;;;;;;39.92;22.63;;;4.30;99.90;;;;;;5065771;28;20055;-81
2022/03/16 03:32:36;;;;;;;42.92;23.10;;;4.20;99.90;;;;;;5064532;28;20090;-81
2022/03/16 03:35:02;;;;;;;47.45;23.27;;;4.20;99.90;;;;;;5065423;28;20080;-80
2022/03/16 03:37:30;;;;;;;46.97;23.52;;;4.20;99.90;;;;;;5065491;28;20492;-80
2022/03/16 03:39:57;;;;;;;41.67;20.55;;;4.10;99.90;;;;;;5048245;28;20476;-80
2022/03/16 03:42:23;;;;;;;46.80;21.27;;;4.30;99.90;;;;;;5048972;28;20046;-80
2022/03/16 03:44:49;;;;;;;43.25;20.38;;;4.10;99.90;;;;;;5046948;28;20119;-80
2022/03/16 03:47:15;;;;;;;50.80;22.55;;;3.90;99.90;;;;;;5048616;28;20045;-79
2022/03/16 03:49:42;;;;;;;43.58;23.73;;;3.90;99.90;;;;;;5031755;28;20040;-80
2022/03/16 03:52:08;;;;;;;41.83;22.60;;;3.90;99.90;;;;;;5033459;28;20131;-80
2022/03/16 03:54:35;;;;;;;40.55;21.25;;;3.80;99.90;;;;;;5067717;28;20044;-80
2022/03/16 03:57:01;;;;;;;44.55;23.25;;;3.80;99.90;;;;;;5047599;28;20052;-81
2022/03/16 03:59:27;;;;;;;42.85;22.60;;;3.80;99.90;;;;;;5031992;28;20461;-81
2022/03/16 04:01:52;;;;;;;51.90;23.85;;;3.80;99.90;;;;;;5063311;28;20151;-80
2022/03/16 04:04:18;;;;;;;45.38;22.48;;;3.70;99.90;;;;;;5065328;28;20045;-81
2022/03/16 04:06:45;;;;;;;51.30;23.25;;;3.80;99.90;;;;;;5064166;28;20059;-80
2022/03/16 04:09:11;;;;;;;40.10;20.75;;;3.70;99.90;;;;;;5047716;28;20055;-80
2022/03/16 04:11:37;;;;;;;43.42;22.35;;;3.70;99.90;;;;;;5048734;28;20055;-81
2022/03/16 04:14:03;;;;;;;38.83;20.15;;;3.60;99.90;;;;;;5064039;28;20600;-81
2022/03/16 04:16:30;;;;;;;57.65;23.13;;;3.60;99.90;;;;;;5048422;28;20036;-80
2022/03/16 04:18:55;;;;;;;48.78;23.13;;;3.60;99.90;;;;;;5063215;28;20055;-80
2022/03/16 04:21:22;;;;;;;42.47;21.42;;;3.60;99.90;;;;;;5064905;28;20044;-80
2022/03/16 04:23:49;;;;;;;44.30;22.55;;;3.60;99.90;;;;;;5064043;28;20040;-79
2022/03/16 04:26:15;;;;;;;42.08;21.67;;;4.60;99.90;;;;;;5065812;28;20473;-79
2022/03/16 04:28:41;;;;;;;36.47;20.80;;;3.50;99.90;;;;;;5065131;28;20040;-80
2022/03/16 04:31:07;;;;;;;45.22;21.10;;;3.50;99.90;;;;;;5064863;28;20070;-80
2022/03/16 04:33:33;;;;;;;43.63;21.17;;;3.50;99.90;;;;;;5064912;28;20040;-80
2022/03/16 04:35:58;;;;;;;55.05;22.00;;;4.50;99.90;;;;;;5063087;28;20053;-80
2022/03/16 04:38:24;;;;;;;50.58;21.15;;;3.40;99.90;;;;;;5066426;28;20135;-81
2022/03/16 04:40:50;;;;;;;46.75;20.95;;;3.40;99.90;;;;;;5063856;28;20040;-80
2022/03/16 04:43:16;;;;;;;44.30;22.20;;;3.30;99.90;;;;;;5064258;28;20109;-80
2022/03/16 04:45:43;;;;;;;49.20;21.45;;;4.70;99.90;;;;;;5066338;28;20037;-80
2022/03/16 04:48:11;;;;;;;47.53;22.30;;;4.30;99.90;;;;;;5065024;28;20040;-80
2022/03/16 04:50:41;;;;;;;51.50;25.08;;;3.30;99.90;;;;;;5032117;28;20048;-80
2022/03/16 04:53:07;;;;;;;59.72;25.33;;;3.30;99.90;;;;;;5063259;28;20049;-80
2022/03/16 04:55:36;;;;;;;44.08;22.55;;;3.30;99.90;;;;;;5048217;28;20076;-80
2022/03/16 04:58:09;;;;;;;51.40;23.23;;;3.40;99.90;;;;;;5066471;28;20519;-80
2022/03/16 05:00:36;;;;;;;46.72;21.65;;;3.40;99.90;;;;;;5067733;28;20041;-80
2022/03/16 05:03:02;;;;;;;50.17;22.90;;;3.40;99.90;;;;;;5052450;28;20045;-80
2022/03/16 05:05:29;;;;;;;42.88;22.35;;;3.40;99.90;;;;;;5066802;28;20102;-80
2022/03/16 05:07:55;;;;;;;50.40;22.48;;;3.40;99.90;;;;;;5068492;28;20573;-80
2022/03/16 05:10:21;;;;;;;53.60;23.85;;;3.50;99.90;;;;;;5066578;28;20078;-79
2022/03/16 05:12:46;;;;;;;52.45;24.00;;;3.50;99.90;;;;;;5068488;28;20052;-79
2022/03/16 05:15:18;;;;;;;54.67;24.13;;;3.50;99.90;;;;;;5017919;28;20052;-79
2022/03/16 05:17:46;;;;;;;54.45;21.77;;;3.50;99.90;;;;;;5051042;28;20127;-79
2022/03/16 05:20:13;;;;;;;51.40;22.90;;;3.50;99.90;;;;;;5068141;28;20088;-79
2022/03/16 05:22:47;;;;;;;48.45;24.25;;;3.50;99.90;;;;;;5050250;28;20480;-80
2022/03/16 05:25:18;;;;;;;51.38;22.27;;;3.50;99.90;;;;;;5068189;28;20053;-79
2022/03/16 05:27:44;;;;;;;57.47;24.48;;;3.50;99.90;;;;;;5067129;28;20044;-80
2022/03/16 05:30:11;;;;;;;57.70;24.35;;;3.90;99.90;;;;;;5067750;28;20395;-80
2022/03/16 05:32:40;;;;;;;46.30;22.15;;;3.60;99.90;;;;;;5068794;28;20076;-80
2022/03/16 05:35:08;;;;;;;58.58;25.55;;;3.60;99.90;;;;;;5068421;28;20048;-81
2022/03/16 05:37:34;;;;;;;46.22;22.98;;;3.60;99.90;;;;;;5068040;28;20041;-80
2022/03/16 05:40:00;;;;;;;44.53;21.70;;;3.70;99.90;;;;;;5049886;28;20086;-80
2022/03/16 05:42:25;;;;;;;54.50;23.75;;;3.70;99.90;;;;;;5051341;28;20404;-81
2022/03/16 05:44:54;;;;;;;45.97;23.48;;;3.70;99.90;;;;;;5066096;28;20048;-80
2022/03/16 05:47:23;;;;;;;53.50;22.73;;;3.70;99.90;;;;;;5068031;28;20435;-80
2022/03/16 05:49:53;;;;;;;42.17;20.95;;;3.70;99.90;;;;;;5067277;28;20123;-80
2022/03/16 05:52:23;;;;;;;51.35;22.77;;;4.30;99.90;;;;;;5067798;28;20131;-80
2022/03/16 05:54:50;;;;;;;46.58;21.95;;;3.70;99.90;;;;;;5067913;28;20048;-79
2022/03/16 05:57:16;;;;;;;50.63;23.15;;;3.70;99.90;;;;;;5065773;28;20045;-79
2022/03/16 05:59:43;;;;;;;53.97;24.35;;;4.70;99.90;;;;;;5069111;28;20067;-82
2022/03/16 06:02:09;;;;;;;51.88;25.25;;;3.80;99.90;;;;;;5066535;28;20147;-81
2022/03/16 06:04:36;;;;;;;56.17;25.98;;;3.80;99.90;;;;;;5066583;28;20041;-80
2022/03/16 06:07:03;;;;;;;65.57;27.25;;;5.40;99.90;;;;;;5067357;28;20480;-80
2022/03/16 06:09:28;;;;;;;53.22;22.67;;;3.90;99.90;;;;;;5066432;28;20042;-81
2022/03/16 06:11:54;;;;;;;55.38;25.70;;;4.00;99.90;;;;;;5068619;28;20037;-81
2022/03/16 06:14:20;;;;;;;57.75;24.65;;;4.00;99.90;;;;;;5066970;28;20048;-79
2022/03/16 06:16:47;;;;;;;55.22;25.75;;;4.00;99.90;;;;;;5067493;28;20037;-80
2022/03/16 06:19:13;;;;;;;49.90;24.30;;;4.00;99.90;;;;;;5049668;28;20049;-81
2022/03/16 06:21:39;;;;;;;61.58;25.13;;;4.10;99.90;;;;;;5067356;28;20057;-81
2022/03/16 06:24:05;;;;;;;64.82;26.08;;;4.10;99.90;;;;;;5067625;28;20064;-80
2022/03/16 06:26:31;;;;;;;54.83;25.17;;;4.20;99.90;;;;;;5049535;28;20048;-80
2022/03/16 06:28:56;;;;;;;64.78;27.35;;;4.30;99.90;;;;;;5068651;28;20503;-80
2022/03/16 06:31:22;;;;;;;58.38;26.38;;;4.40;99.90;;;;;;5048449;28;20056;-81
2022/03/16 06:33:48;;;;;;;59.80;26.98;;;4.40;99.90;;;;;;5066614;28;20040;-81
2022/03/16 06:36:14;;;;;;;66.55;28.25;;;4.50;99.90;;;;;;5065653;28;20397;-81
2022/03/16 06:38:39;;;;;;;57.30;26.20;;;4.50;99.90;;;;;;5066420;28;20044;-81
2022/03/16 06:41:05;;;;;;;56.97;25.15;;;4.60;99.90;;;;;;5066757;28;20476;-81
2022/03/16 06:43:31;;;;;;;49.38;25.02;;;5.00;99.90;;;;;;5065530;28;20051;-81
2022/03/16 06:45:57;;;;;;;59.38;26.08;;;4.70;99.90;;;;;;5050221;28;20044;-80
2022/03/16 06:48:23;;;;;;;65.93;25.60;;;4.70;99.90;;;;;;5048491;28;20040;-81
2022/03/16 06:50:52;;;;;;;49.85;25.83;;;4.80;99.90;;;;;;5068011;28;20472;-82
2022/03/16 06:53:18;;;;;;;49.20;25.15;;;5.80;99.90;;;;;;5066376;28;20086;-80
2022/03/16 06:55:44;;;;;;;50.45;25.38;;;4.80;99.90;;;;;;5049479;28;20048;-81
2022/03/16 06:58:09;;;;;;;50.60;25.73;;;4.90;99.90;;;;;;5033440;28;20052;-78
2022/03/16 07:00:35;;;;;;;50.83;23.95;;;4.90;99.90;;;;;;5066718;28;20483;-79
2022/03/16 07:03:03;;;;;;;50.88;23.42;;;5.00;99.90;;;;;;5066310;28;20127;-79
2022/03/16 07:05:37;;;;;;;51.75;25.80;;;5.00;99.90;;;;;;5048365;28;20466;-79
2022/03/16 07:08:11;;;;;;;51.13;23.83;;;5.00;99.90;;;;;;5067891;28;20032;-79
2022/03/16 07:10:40;;;;;;;50.13;24.27;;;5.00;99.90;;;;;;5065073;28;20044;-79
2022/03/16 07:13:07;;;;;;;49.47;24.70;;;5.10;99.90;;;;;;5065817;28;20040;-79
2022/03/16 07:15:33;;;;;;;51.17;23.83;;;5.10;99.90;;;;;;5066368;28;20045;-79
2022/03/16 07:18:01;;;;;;;44.78;23.48;;;5.20;99.90;;;;;;5066235;28;20103;-79
2022/03/16 07:20:28;;;;;;;42.30;23.95;;;5.20;99.90;;;;;;5065821;28;20538;-79
2022/03/16 07:23:01;;;;;;;44.25;23.55;;;5.20;99.90;;;;;;5064109;28;20041;-79
2022/03/16 07:25:26;;;;;;;44.92;22.83;;;5.30;99.90;;;;;;5049377;28;20074;-79
2022/03/16 07:27:52;;;;;;;48.25;24.25;;;5.30;99.90;;;;;;5065765;28;20435;-79
2022/03/16 07:30:18;;;;;;;43.35;22.55;;;5.30;99.90;;;;;;5048199;28;20447;-79
2022/03/16 07:32:44;;;;;;;50.65;23.55;;;5.30;99.90;;;;;;5032638;28;20040;-79
2022/03/16 07:35:10;;;;;;;46.30;24.00;;;5.40;99.90;;;;;;5064628;28;20563;-79
2022/03/16 07:37:37;;;;;;;43.53;24.38;;;5.40;99.90;;;;;;5067228;28;20044;-79
2022/03/16 07:40:04;;;;;;;48.20;22.58;;;5.50;99.90;;;;;;5065580;28;20445;-79
2022/03/16 07:42:30;;;;;;;47.83;25.20;;;5.60;99.90;;;;;;5065298;28;20056;-79
2022/03/16 07:44:57;;;;;;;52.35;25.48;;;5.70;99.90;;;;;;5048002;28;20121;-79
2022/03/16 07:47:25;;;;;;;45.38;23.90;;;5.80;99.90;;;;;;5064751;28;20048;-79
2022/03/16 07:49:51;;;;;;;49.33;24.83;;;6.10;99.90;;;;;;5065299;28;20040;-79
2022/03/16 07:52:17;;;;;;;46.83;24.27;;;6.00;99.90;;;;;;5047318;28;20052;-78
2022/03/16 07:54:42;;;;;;;47.45;23.63;;;6.10;99.90;;;;;;5065274;28;20440;-79
2022/03/16 07:57:08;;;;;;;47.33;23.38;;;6.20;99.90;;;;;;5065204;28;20057;-78
2022/03/16 07:59:34;;;;;;;49.88;23.95;;;6.30;99.90;;;;;;5067059;28;20087;-79
2022/03/16 08:02:00;;;;;;;47.05;24.63;;;6.30;99.90;;;;;;5064400;28;20052;-78
2022/03/16 08:04:25;;;;;;;42.88;22.58;;;6.40;99.90;;;;;;5064459;28;20044;-79
2022/03/16 08:06:51;;;;;;;38.42;22.85;;;6.50;99.90;;;;;;5065800;28;20107;-78
2022/03/16 08:09:17;;;;;;;46.00;24.60;;;7.10;99.90;;;;;;5047275;28;20128;-78
2022/03/16 08:11:43;;;;;;;39.85;22.85;;;6.70;99.90;;;;;;5032344;28;20048;-78
2022/03/16 08:14:08;;;;;;;42.83;22.02;;;6.80;99.90;;;;;;5063165;28;20507;-78
2022/03/16 08:16:34;;;;;;;43.95;22.83;;;6.90;99.90;;;;;;5064916;28;20113;-78
2022/03/16 08:19:00;;;;;;;43.65;23.13;;;7.50;99.90;;;;;;5064095;28;20047;-79
2022/03/16 08:21:26;;;;;;;40.17;22.67;;;7.10;99.90;;;;;;5064118;28;20511;-78
2022/03/16 08:23:53;;;;;;;37.83;22.38;;;7.30;99.90;;;;;;5048541;28;20400;-78
2022/03/16 08:26:19;;;;;;;42.58;22.52;;;7.30;99.90;;;;;;5065173;28;20141;-79
2022/03/16 08:28:45;;;;;;;35.88;21.20;;;7.50;99.90;;;;;;5065245;28;20515;-79
2022/03/16 08:31:15;;;;;;;36.25;21.27;;;7.60;99.90;;;;;;5062682;28;20106;-79
2022/03/16 08:33:41;;;;;;;35.33;20.73;;;7.70;99.90;;;;;;5066529;28;20076;-77
2022/03/16 08:36:08;;;;;;;35.67;20.63;;;9.00;99.90;;;;;;5065399;28;20043;-78
2022/03/16 08:38:37;;;;;;;31.05;19.80;;;8.10;99.90;;;;;;5047488;28;20589;-80
2022/03/16 08:41:04;;;;;;;29.27;19.02;;;8.10;99.90;;;;;;5065463;28;20040;-78
2022/03/16 08:43:34;;;;;;;34.88;21.50;;;8.30;99.90;;;;;;5047872;28;20496;-79
2022/03/16 08:46:03;;;;;;;;;;;8.40;99.90;;;;;;5067510;28;20079;-80
2022/03/16 08:48:30;;;;;;;30.40;18.63;;;8.50;99.90;;;;;;5063640;28;19921;-80
2022/03/16 08:50:56;;;;;;;32.17;19.60;;;8.70;99.90;;;;;;5065104;28;20036;-80
2022/03/16 08:53:22;;;;;;;35.08;20.23;;;8.80;99.90;;;;;;5063985;28;20125;-79
2022/03/16 08:55:48;;;;;;;35.53;20.65;;;9.00;99.90;;;;;;5066132;28;20519;-80
2022/03/16 08:58:14;;;;;;;36.00;19.17;;;9.20;99.90;;;;;;5031547;28;20086;-80
2022/03/16 09:00:41;;;;;;;31.77;18.20;;;9.50;99.90;;;;;;5065562;28;20063;-78
2022/03/16 09:03:07;;;;;;;34.83;18.13;;;9.40;99.90;;;;;;5066818;28;20221;-79
2022/03/16 09:05:33;;;;;;;27.20;16.40;;;9.50;99.90;;;;;;5064939;28;20037;-79
2022/03/16 09:07:59;;;;;;;27.45;16.95;;;9.60;99.90;;;;;;5066704;28;20051;-79
2022/03/16 09:10:25;;;;;;;28.25;17.45;;;9.70;99.90;;;;;;5064608;28;20040;-79
2022/03/16 09:12:51;;;;;;;23.38;15.68;;;9.80;99.90;;;;;;5066300;28;20037;-78
2022/03/16 09:15:17;;;;;;;27.08;14.88;;;10.00;99.90;;;;;;5065636;28;20466;-78
2022/03/16 09:17:42;;;;;;;28.08;14.90;;;10.20;99.90;;;;;;5065296;28;20058;-78
2022/03/16 09:20:08;;;;;;;23.30;15.23;;;10.60;99.90;;;;;;5065951;28;20512;-78
2022/03/16 09:22:34;;;;;;;26.27;15.00;;;10.30;99.90;;;;;;5064343;28;20059;-78
2022/03/16 09:25:00;;;;;;;28.60;15.38;;;10.50;99.90;;;;;;5048328;28;20052;-79
2022/03/16 09:27:27;;;;;;;26.60;15.63;;;10.70;99.90;;;;;;5064935;28;20059;-78
2022/03/16 09:29:54;;;;;;;25.80;15.18;;;10.80;99.90;;;;;;5064666;28;20122;-77
2022/03/16 09:32:21;;;;;;;24.27;15.13;;;11.00;99.90;;;;;;5066045;28;20387;-79
2022/03/16 09:34:48;;;;;;;27.55;16.15;;;11.20;99.90;;;;;;5047636;28;20127;-78
2022/03/16 09:37:14;;;;;;;25.65;15.82;;;11.30;99.90;;;;;;5065121;28;20079;-78
2022/03/16 09:39:40;;;;;;;32.47;16.58;;;11.50;99.90;;;;;;5063210;28;20559;-78
2022/03/16 09:42:08;;;;;;;25.48;15.48;;;11.60;99.90;;;;;;5065302;28;20044;-78
2022/03/16 09:44:34;;;;;;;26.63;16.80;;;11.60;99.90;;;;;;5064858;28;20051;-78
2022/03/16 09:47:00;;;;;;;26.13;15.38;;;11.50;99.90;;;;;;5069096;28;20052;-79
2022/03/16 09:49:27;;;;;;;22.92;14.52;;;12.30;99.90;;;;;;5051409;28;20117;-80
2022/03/16 09:51:54;;;;;;;25.23;14.15;;;11.50;99.90;;;;;;5068142;28;20086;-79
2022/03/16 09:54:25;;;;;;;22.48;13.77;;;11.70;99.90;;;;;;5069223;28;20450;-79
2022/03/16 09:56:52;;;;;;;22.45;14.18;;;12.00;99.90;;;;;;5068532;28;20045;-79
2022/03/16 09:59:20;;;;;;;20.15;13.60;;;12.30;99.90;;;;;;5051596;28;20127;-80
2022/03/16 10:01:45;;;;;;;21.70;13.15;;;12.60;99.90;;;;;;5049403;28;20053;-80
2022/03/16 10:04:13;;;;;;;20.98;13.07;;;12.80;99.90;;;;;;5067727;28;20080;-80
2022/03/16 10:06:42;;;;;;;22.02;12.07;;;13.00;99.90;;;;;;5034184;28;20051;-80
2022/03/16 10:15:05;;;;;;;16.60;11.25;;;13.30;99.90;;;;;;5068044;28;20040;-78
2022/03/16 10:17:43;;;;;;;14.05;9.35;;;13.40;99.90;;;;;;5066748;28;20056;-79
2022/03/16 10:20:23;;;;;;;17.48;10.25;;;13.50;99.90;;;;;;5066985;28;20052;-79
2022/03/16 10:23:03;;;;;;;15.60;10.18;;;13.60;99.90;;;;;;5049528;28;20396;-78
2022/03/16 10:25:32;;;;;;;14.50;9.75;;;13.70;99.90;;;;;;5068396;28;20052;-79
2022/03/16 10:28:12;;;;;;;13.15;8.80;;;13.70;99.90;;;;;;5066745;28;20040;-79
2022/03/16 10:30:46;;;;;;;13.98;8.77;;;13.70;99.90;;;;;;5065347;28;20484;-78
2022/03/16 10:33:15;;;;;;;15.93;9.20;;;13.70;99.90;;;;;;5066993;28;20041;-80
2022/03/16 10:36:04;;;;;;;18.40;9.00;;;13.70;99.90;;;;;;5065276;28;20059;-80
2022/03/16 10:38:42;;;;;;;17.90;9.57;;;13.70;94.70;;;;;;5067801;28;20044;-79
2022/03/16 10:41:13;;;;;;;13.70;8.68;;;13.70;99.90;;;;;;5068694;28;20056;-78
2022/03/16 10:46:38;;;;;;;15.13;9.35;;;13.60;99.90;;;;;;5068895;28;20154;-78
2022/03/16 10:49:12;;;;;;;17.08;9.05;;;13.60;99.90;;;;;;5067383;28;20503;-78
2022/03/16 10:51:38;;;;;;;12.95;8.73;;;13.70;99.90;;;;;;5066007;28;20060;-78
2022/03/16 10:54:05;;;;;;;16.13;10.45;;;13.70;99.90;;;;;;5067049;28;20049;-77
2022/03/16 10:56:31;;;;;;;14.38;8.90;;;13.70;99.90;;;;;;5065265;28;20408;-79
2022/03/16 10:58:59;;;;;;;16.58;9.95;;;13.60;99.90;;;;;;5050260;28;20049;-78
2022/03/16 11:01:27;;;;;;;17.17;10.55;;;13.70;99.90;;;;;;5066752;28;20078;-79
2022/03/16 11:03:58;;;;;;;14.40;9.88;;;13.50;99.90;;;;;;5066845;28;20144;-79
2022/03/16 11:06:25;;;;;;;12.80;8.48;;;13.50;99.90;;;;;;5049827;28;20045;-78
2022/03/16 11:08:51;;;;;;;20.15;8.20;;;13.50;99.90;;;;;;5065565;28;20079;-78
2022/03/16 11:14:05;;;;;;;11.88;7.88;;;13.60;99.90;;;;;;5065320;28;20604;-78
2022/03/16 11:16:32;;;;;;;16.08;7.03;;;13.80;99.90;;;;;;5068338;28;20055;-80
2022/03/16 11:19:01;;;;;;;16.92;8.50;;;14.00;99.90;;;;;;5048561;28;20044;-79
2022/03/16 11:21:53;;;;;;;15.70;7.70;;;14.10;92.30;;;;;;5065725;28;20099;-80
2022/03/16 11:24:26;;;;;;;14.82;8.60;;;14.10;96.10;;;;;;5057516;28;20127;-78
2022/03/16 11:27:24;;;;;;;13.68;7.97;;;14.20;99.50;;;;;;5066225;28;20518;-78
2022/03/16 11:29:56;;;;;;;11.63;7.97;;;14.20;86.90;;;;;;5066253;28;20053;-78
2022/03/16 11:32:22;;;;;;;14.45;8.27;;;14.20;94.60;;;;;;5066514;28;20037;-78
2022/03/16 11:34:56;;;;;;;14.05;8.25;;;14.30;98.40;;;;;;5067323;28;20047;-79
2022/03/16 11:37:51;;;;;;;17.63;8.60;;;14.30;95.80;;;;;;5051548;28;20116;-79
2022/03/16 11:40:20;;;;;;;19.48;8.32;;;14.30;83.20;;;;;;5065638;28;20157;-80
2022/03/16 11:43:04;;;;;;;16.38;9.15;;;14.30;96.60;;;;;;5066486;28;20127;-79
2022/03/16 11:45:43;;;;;;;18.83;8.63;;;14.40;80.00;;;;;;5067386;28;20416;-79
2022/03/16 11:48:40;;;;;;;14.70;9.10;;;14.40;97.00;;;;;;5065057;28;20044;-79
2022/03/16 11:51:09;;;;;;;13.23;8.55;;;14.60;80.80;;;;;;5061246;28;20044;-79
2022/03/16 11:53:47;;;;;;;17.30;9.20;;;14.70;95.60;;;;;;5065431;28;20049;-79
2022/03/16 11:56:23;;;;;;;15.80;8.77;;;14.70;91.60;;;;;;5065894;28;20055;-79
2022/03/16 11:59:04;;;;;;;13.23;7.85;;;14.90;94.40;;;;;;5065492;28;20036;-78
2022/03/16 12:01:31;;;;;;;11.98;7.35;;;15.00;91.80;;;;;;5064549;28;20036;-77
2022/03/16 12:04:08;;;;;;;10.63;7.68;;;14.90;91.20;;;;;;5065244;28;20438;-77
2022/03/16 12:07:00;;;;;;;14.35;8.02;;;14.90;89.80;;;;;;5064667;28;20040;-77
2022/03/16 12:09:49;;;;;;;11.13;7.43;;;14.90;76.70;;;;;;5065356;28;20048;-78
2022/03/16 12:12:51;;;;;;;12.85;7.68;;;15.00;80.70;;;;;;5065035;28;20131;-77
2022/03/16 12:15:19;;;;;;;16.95;8.57;;;15.10;69.20;;;;;;5065267;28;20149;-79
2022/03/16 12:17:54;;;;;;;14.02;7.35;;;15.20;89.80;;;;;;5064182;28;20042;-79
2022/03/16 12:20:23;;;;;;;11.68;7.50;;;15.20;79.60;;;;;;5048210;28;20102;-78
2022/03/16 12:22:51;;;;;;;13.68;7.28;;;15.20;82.30;;;;;;5065463;28;20040;-78
2022/03/16 12:25:26;;;;;;;14.40;7.22;;;15.20;74.10;;;;;;5064551;28;20066;-78
2022/03/16 12:30:48;;;;;;;12.18;7.43;;;15.20;78.00;;;;;;5063377;28;20052;-78
2022/03/16 12:33:19;;;;;;;9.18;6.63;;;15.40;81.70;;;;;;5065086;28;20044;-77
2022/03/16 12:35:49;;;;;;;13.75;6.30;;;15.40;79.40;;;;;;5063751;28;20045;-76
2022/03/16 12:38:16;;;;;;;10.05;6.30;;;15.50;76.80;;;;;;5064720;28;20037;-76
2022/03/16 12:43:28;;;;;;;8.82;5.75;;;15.50;75.20;;;;;;5063998;28;20102;-77
2022/03/16 12:46:07;;;;;;;10.77;7.35;;;15.60;73.20;;;;;;5065475;28;20040;-77
2022/03/16 12:48:35;;;;;;;19.08;7.20;;;15.50;70.00;;;;;;5064009;28;20052;-78
2022/03/16 12:51:04;;;;;;;14.35;7.28;;;15.50;73.40;;;;;;5064478;28;20040;-77
2022/03/16 12:53:44;;;;;;;11.32;7.00;;;15.50;72.20;;;;;;5031751;28;20040;-79
2022/03/16 12:56:19;;;;;;;10.52;6.70;;;15.50;69.00;;;;;;5047317;28;20040;-78